Time;durP1;ratioP1;P1;durP2;ratioP2;P2;SDS_P1;SDS_P2;PMS_P1;PMS_P2;Temp;Humidity;BMP_temperature;BMP_pressure;BME280_temperature;BME280_humidity;BME280_pressure;Samples;Min_cycle;Max_cycle;Signal;HPM_P1;HPM_P2
2022/03/12 00:02:06;;;;;;;;;;;;;;;;;;5013371;28;19910;-63
2022/03/12 00:04:32;;;;;;;;;;;;;;;;;;5013373;28;19910;-62
2022/03/12 00:06:59;;;;;;;;;;;;;;;;;;5013350;28;19910;-60
2022/03/12 00:09:26;;;;;;;;;;;;;;;;;;5013395;28;19921;-63
2022/03/12 00:11:55;;;;;;;;;;;;;;;;;;5013438;28;19913;-65
2022/03/12 00:14:23;;;;;;;;;;;;;;;;;;5013279;28;20362;-58
2022/03/12 00:16:49;;;;;;;;;;;;;;;;;;5013021;28;20002;-63
2022/03/12 00:19:16;;;;;;;;;;;;;;;;;;5013586;28;19910;-58
2022/03/12 00:21:42;;;;;;;;;;;;;;;;;;5012952;28;19952;-62
2022/03/12 00:24:11;;;;;;;;;;;;;;;;;;5012946;28;20356;-63
2022/03/12 00:26:40;;;;;;;;;;;;;;;;;;5013124;28;19963;-62
2022/03/12 00:29:09;;;;;;;;;;;;;;;;;;5012700;28;19992;-63
2022/03/12 00:31:35;;;;;;;;;;;;;;;;;;5012918;28;20015;-60
2022/03/12 00:34:02;;;;;;;;;;;;;;;;;;5012581;28;19917;-64
2022/03/12 00:36:28;;;;;;;;;;;;;;;;;;5012597;28;19922;-59
2022/03/12 00:38:55;;;;;;;;;;;;;;;;;;5013320;28;19985;-64
2022/03/12 00:41:21;;;;;;;;;;;;;;;;;;5012824;28;19940;-59
2022/03/12 00:43:48;;;;;;;;;;;;;;;;;;5013573;28;19989;-55
2022/03/12 00:46:14;;;;;;;;;;;;;;;;;;5012654;28;19928;-64
2022/03/12 00:48:41;;;;;;;;;;;;;;;;;;5012905;28;19913;-65
2022/03/12 00:51:07;;;;;;;;;;;;;;;;;;5013092;28;19964;-64
2022/03/12 00:53:34;;;;;;;;;;;;;;;;;;5012870;28;20035;-63
2022/03/12 00:56:01;;;;;;;;;;;;;;;;;;5013368;28;20332;-65
2022/03/12 00:58:27;;;;;;;;;;;;;;;;;;5012490;28;19909;-64
2022/03/12 01:00:53;;;;;;;;;;;;;;;;;;4994912;28;19913;-64
2022/03/12 01:03:20;;;;;;;;;;;;;;;;;;5012890;28;19910;-63
2022/03/12 01:05:46;;;;;;;;;;;;;;;;;;5012598;28;20359;-64
2022/03/12 01:08:13;;;;;;;;;;;;;;;;;;5012921;28;19999;-64
2022/03/12 01:10:40;;;;;;;;;;;;;;;;;;5012988;28;19916;-65
2022/03/12 01:13:06;;;;;;;;;;;;;;;;;;5012324;28;20368;-65
2022/03/12 01:15:34;;;;;;;;;;;;;;;;;;5012470;28;20380;-63
2022/03/12 01:18:01;;;;;;;;;;;;;;;;;;5012739;28;19910;-64
2022/03/12 01:20:27;;;;;;;;;;;;;;;;;;5012952;28;20387;-66
2022/03/12 01:22:54;;;;;;;;;;;;;;;;;;5012335;28;20000;-64
2022/03/12 01:25:20;;;;;;;;;;;;;;;;;;5012553;28;19983;-61
2022/03/12 01:27:47;;;;;;;;;;;;;;;;;;5012642;28;19916;-58
2022/03/12 01:30:13;;;;;;;;;;;;;;;;;;5012088;28;19971;-60
2022/03/12 01:32:40;;;;;;;;;;;;;;;;;;5011492;28;19947;-57
2022/03/12 01:35:06;;;;;;;;;;;;;;;;;;5011416;28;19910;-56
2022/03/12 01:37:33;;;;;;;;;;;;;;;;;;5011663;28;20380;-55
2022/03/12 01:39:59;;;;;;;;;;;;;;;;;;5011329;28;20065;-56
2022/03/12 01:42:27;;;;;;;;;;;;;;;;;;5011460;28;20344;-59
2022/03/12 01:44:53;;;;;;;;;;;;;;;;;;5010764;28;20347;-64
2022/03/12 01:47:21;;;;;;;;;;;;;;;;;;5011008;28;19913;-59
2022/03/12 01:49:47;;;;;;;;;;;;;;;;;;5011625;28;19955;-51
2022/03/12 01:52:14;;;;;;;;;;;;;;;;;;5011120;28;20410;-51
2022/03/12 01:54:41;;;;;;;;;;;;;;;;;;5011889;28;19913;-51
2022/03/12 01:57:09;;;;;;;;;;;;;;;;;;5011755;28;20390;-47
2022/03/12 01:59:35;;;;;;;;;;;;;;;;;;4994075;28;19918;-65
2022/03/12 02:02:03;;;;;;;;;;;;;;;;;;5011153;28;20011;-60
2022/03/12 02:04:29;;;;;;;;;;;;;;;;;;5004855;28;19913;-51
2022/03/12 02:06:58;;;;;;;;;;;;;;;;;;4991161;28;19917;-50
2022/03/12 02:09:25;;;;;;;;;;;;;;;;;;5009835;28;20379;-51
2022/03/12 02:11:52;;;;;;;;;;;;;;;;;;5014020;28;20005;-51
2022/03/12 02:14:18;;;;;;;;;;;;;;;;;;5013240;28;20012;-52
2022/03/12 02:16:45;;;;;;;;;;;;;;;;;;5011462;28;19949;-60
2022/03/12 02:19:11;;;;;;;;;;;;;;;;;;5013283;28;19909;-51
2022/03/12 02:21:41;;;;;;;;;;;;;;;;;;5013823;28;20305;-50
2022/03/12 02:24:08;;;;;;;;;;;;;;;;;;5013084;28;19981;-55
2022/03/12 02:26:34;;;;;;;;;;;;;;;;;;5010243;28;20433;-54
2022/03/12 02:29:01;;;;;;;;;;;;;;;;;;5013658;28;20029;-56
2022/03/12 02:31:29;;;;;;;;;;;;;;;;;;4994392;28;19914;-59
2022/03/12 02:33:55;;;;;;;;;;;;;;;;;;4995658;28;19910;-63
2022/03/12 02:36:25;;;;;;;;;;;;;;;;;;4872559;28;3531008;-65
2022/03/12 02:38:52;;;;;;;;;;;;;;;;;;4996096;28;19909;-64
2022/03/12 02:41:18;;;;;;;;;;;;;;;;;;4996183;28;20253;-60
2022/03/12 02:43:45;;;;;;;;;;;;;;;;;;4996151;28;19965;-64
2022/03/12 02:46:11;;;;;;;;;;;;;;;;;;4996165;28;19906;-55
2022/03/12 02:48:38;;;;;;;;;;;;;;;;;;4978478;28;19910;-61
2022/03/12 02:51:06;;;;;;;;;;;;;;;;;;4995962;28;19906;-59
2022/03/12 02:53:32;;;;;;;;;;;;;;;;;;4995351;28;20341;-60
2022/03/12 02:55:58;;;;;;;;;;;;;;;;;;4994215;28;19916;-59
2022/03/12 02:58:26;;;;;;;;;;;;;;;;;;4993221;28;20456;-63
2022/03/12 03:00:53;;;;;;;;;;;;;;;;;;4995370;28;19980;-59
2022/03/12 03:03:20;;;;;;;;;;;;;;;;;;4995548;28;20448;-59
2022/03/12 03:05:51;;;;;;;;;;;;;;;;;;4995684;28;19996;-67
2022/03/12 03:08:18;;;;;;;;;;;;;;;;;;4995398;28;19964;-55
2022/03/12 03:10:45;;;;;;;;;;;;;;;;;;4995520;28;19942;-63
2022/03/12 03:13:14;;;;;;;;;;;;;;;;;;4993235;28;19918;-62
2022/03/12 03:15:41;;;;;;;;;;;;;;;;;;5012099;28;19913;-57
2022/03/12 03:18:10;;;;;;;;;;;;;;;;;;5013880;28;19995;-60
2022/03/12 03:20:37;;;;;;;;;;;;;;;;;;5012167;28;19968;-54
2022/03/12 03:23:03;;;;;;;;;;;;;;;;;;5012862;28;19910;-59
2022/03/12 03:25:30;;;;;;;;;;;;;;;;;;5012916;28;20352;-63
2022/03/12 03:27:56;;;;;;;;;;;;;;;;;;5013704;28;19917;-56
2022/03/12 03:30:23;;;;;;;;;;;;;;;;;;5011098;28;19953;-54
2022/03/12 03:32:49;;;;;;;;;;;;;;;;;;5013343;28;19918;-51
2022/03/12 03:35:16;;;;;;;;;;;;;;;;;;4994890;28;20098;-58
2022/03/12 03:37:45;;;;;;;;;;;;;;;;;;5013502;28;19932;-55
2022/03/12 03:40:12;;;;;;;;;;;;;;;;;;5010018;28;19909;-51
2022/03/12 03:42:38;;;;;;;;;;;;;;;;;;5014343;28;19909;-66
2022/03/12 03:45:05;;;;;;;;;;;;;;;;;;5013238;28;19929;-65
2022/03/12 03:47:31;;;;;;;;;;;;;;;;;;5013595;28;19917;-67
2022/03/12 03:49:57;;;;;;;;;;;;;;;;;;5014590;28;19951;-59
2022/03/12 03:52:24;;;;;;;;;;;;;;;;;;5015185;28;19917;-69
2022/03/12 03:54:50;;;;;;;;;;;;;;;;;;5014616;28;19999;-59
2022/03/12 03:57:17;;;;;;;;;;;;;;;;;;5012514;28;19983;-50
2022/03/12 03:59:44;;;;;;;;;;;;;;;;;;5013557;28;19917;-69
2022/03/12 04:02:10;;;;;;;;;;;;;;;;;;5014450;28;20349;-72
2022/03/12 04:04:38;;;;;;;;;;;;;;;;;;5014565;28;19910;-67
2022/03/12 04:07:05;;;;;;;;;;;;;;;;;;5013848;28;19909;-70
2022/03/12 04:09:31;;;;;;;;;;;;;;;;;;5012348;28;20371;-58
2022/03/12 04:11:58;;;;;;;;;;;;;;;;;;4997034;28;19925;-67
2022/03/12 04:14:26;;;;;;;;;;;;;;;;;;5014391;28;19936;-72
2022/03/12 04:16:52;;;;;;;;;;;;;;;;;;5013521;28;20284;-60
2022/03/12 04:19:19;;;;;;;;;;;;;;;;;;5013286;28;19927;-59
2022/03/12 04:21:45;;;;;;;;;;;;;;;;;;5013811;28;19976;-71
2022/03/12 04:24:13;;;;;;;;;;;;;;;;;;5014660;28;20000;-69
2022/03/12 04:26:40;;;;;;;;;;;;;;;;;;5014125;28;19989;-64
2022/03/12 04:29:09;;;;;;;;;;;;;;;;;;5013039;28;19913;-63
2022/03/12 04:31:35;;;;;;;;;;;;;;;;;;5013535;28;20322;-72
2022/03/12 04:34:02;;;;;;;;;;;;;;;;;;5012861;28;19910;-70
2022/03/12 04:36:28;;;;;;;;;;;;;;;;;;5013231;28;19931;-72
2022/03/12 04:38:55;;;;;;;;;;;;;;;;;;5014042;28;19910;-72
2022/03/12 04:41:22;;;;;;;;;;;;;;;;;;4996367;28;19910;-68
2022/03/12 04:43:50;;;;;;;;;;;;;;;;;;5013621;28;19960;-63
2022/03/12 04:46:17;;;;;;;;;;;;;;;;;;5014064;28;19992;-68
2022/03/12 04:48:44;;;;;;;;;;;;;;;;;;5014540;28;19989;-59
2022/03/12 04:51:11;;;;;;;;;;;;;;;;;;5011764;28;19913;-48
2022/03/12 04:53:38;;;;;;;;;;;;;;;;;;5012742;28;19929;-57
2022/03/12 04:56:05;;;;;;;;;;;;;;;;;;5012915;28;19916;-68
2022/03/12 04:58:31;;;;;;;;;;;;;;;;;;5014033;28;19909;-50
2022/03/12 05:00:58;;;;;;;;;;;;;;;;;;5013156;28;19985;-54
2022/03/12 05:03:25;;;;;;;;;;;;;;;;;;5013108;28;20043;-65
2022/03/12 05:05:51;;;;;;;;;;;;;;;;;;5013164;28;19910;-68
2022/03/12 05:08:18;;;;;;;;;;;;;;;;;;5012275;28;19910;-65
2022/03/12 05:10:44;;;;;;;;;;;;;;;;;;5013187;28;20284;-72
2022/03/12 05:13:12;;;;;;;;;;;;;;;;;;5012651;28;19917;-55
2022/03/12 05:15:39;;;;;;;;;;;;;;;;;;5012618;28;20008;-69
2022/03/12 05:18:06;;;;;;;;;;;;;;;;;;5013245;28;19909;-64
2022/03/12 05:20:34;;;;;;;;;;;;;;;;;;5013512;28;19909;-58
2022/03/12 05:23:00;;;;;;;;;;;;;;;;;;5012810;28;19910;-64
2022/03/12 05:25:29;;;;;;;;;;;;;;;;;;5012981;28;20253;-64
2022/03/12 05:27:55;;;;;;;;;;;;;;;;;;5012794;28;20083;-61
2022/03/12 05:30:22;;;;;;;;;;;;;;;;;;5013341;28;19909;-55
2022/03/12 05:32:50;;;;;;;;;;;;;;;;;;4994505;28;19922;-57
2022/03/12 05:35:20;;;;;;;;;;;;;;;;;;4994125;28;20366;-58
2022/03/12 05:37:46;;;;;;;;;;;;;;;;;;5011599;28;19921;-55
2022/03/12 05:40:17;;;;;;;;;;;;;;;;;;5012813;28;20048;-63
2022/03/12 05:42:43;;;;;;;;;;;;;;;;;;5011948;28;19973;-64
2022/03/12 05:45:10;;;;;;;;;;;;;;;;;;5012343;28;19956;-63
2022/03/12 05:47:37;;;;;;;;;;;;;;;;;;5012798;28;20352;-68
2022/03/12 05:50:04;;;;;;;;;;;;;;;;;;5012748;28;19957;-69
2022/03/12 05:52:30;;;;;;;;;;;;;;;;;;5012698;28;19939;-61
2022/03/12 05:54:57;;;;;;;;;;;;;;;;;;5012331;28;19954;-57
2022/03/12 05:57:23;;;;;;;;;;;;;;;;;;5005853;28;20271;-68
2022/03/12 05:59:51;;;;;;;;;;;;;;;;;;5010719;28;20016;-57
2022/03/12 06:02:18;;;;;;;;;;;;;;;;;;5011049;28;20356;-59
2022/03/12 06:04:45;;;;;;;;;;;;;;;;;;5010702;28;19914;-49
2022/03/12 06:07:11;;;;;;;;;;;;;;;;;;5008892;28;19979;-54
2022/03/12 06:09:38;;;;;;;;;;;;;;;;;;5010483;28;20294;-55
2022/03/12 06:12:05;;;;;;;;;;;;;;;;;;5010326;28;19925;-53
2022/03/12 06:14:36;;;;;;;;;;;;;;;;;;5010790;28;19915;-61
2022/03/12 06:17:03;;;;;;;;;;;;;;;;;;5009152;28;19931;-65
2022/03/12 06:19:30;;;;;;;;;;;;;;;;;;5011471;28;19916;-62
2022/03/12 06:21:57;;;;;;;;;;;;;;;;;;5011736;28;19920;-68
2022/03/12 06:24:23;;;;;;;;;;;;;;;;;;5012172;28;19915;-64
2022/03/12 06:26:50;;;;;;;;;;;;;;;;;;5012610;28;19909;-67
2022/03/12 06:29:17;;;;;;;;;;;;;;;;;;5011626;28;19914;-61
2022/03/12 06:31:43;;;;;;;;;;;;;;;;;;5011711;28;19909;-67
2022/03/12 06:34:10;;;;;;;;;;;;;;;;;;5012365;28;20291;-61
2022/03/12 06:36:37;;;;;;;;;;;;;;;;;;5011933;28;19996;-61
2022/03/12 06:39:04;;;;;;;;;;;;;;;;;;5012138;28;19925;-63
2022/03/12 06:41:38;;;;;;;;;;;;;;;;;;4994756;28;19916;-69
2022/03/12 06:44:04;;;;;;;;;;;;;;;;;;5010853;28;19952;-65
2022/03/12 06:46:31;;;;;;;;;;;;;;;;;;5012017;28;19921;-61
2022/03/12 06:48:58;;;;;;;;;;;;;;;;;;5011612;28;19971;-60
2022/03/12 06:51:24;;;;;;;;;;;;;;;;;;5011903;28;19913;-63
2022/03/12 06:53:52;;;;;;;;;;;;;;;;;;5011521;28;19983;-64
2022/03/12 06:56:19;;;;;;;;;;;;;;;;;;5012970;28;19909;-56
2022/03/12 06:58:45;;;;;;;;;;;;;;;;;;5015404;28;19955;-64
2022/03/12 07:01:12;;;;;;;;;;;;;;;;;;5015037;28;19909;-57
2022/03/12 07:03:38;;;;;;;;;;;;;;;;;;5015404;28;19915;-63
2022/03/12 07:06:06;;;;;;;;;;;;;;;;;;5015024;28;19914;-60
2022/03/12 07:08:33;;;;;;;;;;;;;;;;;;5015624;28;19922;-61
2022/03/12 07:11:00;;;;;;;;;;;;;;;;;;5015321;28;19920;-62
2022/03/12 07:13:26;;;;;;;;;;;;;;;;;;5015397;28;19925;-56
2022/03/12 07:15:53;;;;;;;;;;;;;;;;;;5015295;28;19916;-57
2022/03/12 07:18:19;;;;;;;;;;;;;;;;;;5015462;28;20019;-59
2022/03/12 07:20:46;;;;;;;;;;;;;;;;;;5015030;28;19916;-62
2022/03/12 07:23:12;;;;;;;;;;;;;;;;;;5014740;28;19980;-62
2022/03/12 07:25:39;;;;;;;;;;;;;;;;;;5014976;28;19941;-64
2022/03/12 07:28:05;;;;;;;;;;;;;;;;;;5014828;28;19921;-65
2022/03/12 07:30:32;;;;;;;;;;;;;;;;;;5014767;28;19916;-62
2022/03/12 07:32:58;;;;;;;;;;;;;;;;;;5014499;28;19918;-61
2022/03/12 07:35:26;;;;;;;;;;;;;;;;;;5014895;28;20400;-60
2022/03/12 07:37:53;;;;;;;;;;;;;;;;;;5014823;28;19921;-58
2022/03/12 07:40:19;;;;;;;;;;;;;;;;;;4997237;28;20001;-63
2022/03/12 07:42:47;;;;;;;;;;;;;;;;;;5014853;28;20368;-64
2022/03/12 07:45:15;;;;;;;;;;;;;;;;;;5014120;28;19932;-63
2022/03/12 07:47:41;;;;;;;;;;;;;;;;;;5014549;28;19909;-65
2022/03/12 07:50:08;;;;;;;;;;;;;;;;;;5014980;28;19910;-66
2022/03/12 07:52:34;;;;;;;;;;;;;;;;;;5014773;28;19921;-65
2022/03/12 07:55:02;;;;;;;;;;;;;;;;;;5014338;28;20202;-58
2022/03/12 07:57:29;;;;;;;;;;;;;;;;;;5014450;28;19910;-65
2022/03/12 07:59:56;;;;;;;;;;;;;;;;;;4997000;28;20384;-63
2022/03/12 08:02:22;;;;;;;;;;;;;;;;;;5014052;28;20378;-65
2022/03/12 08:04:49;;;;;;;;;;;;;;;;;;5013504;28;19916;-56
2022/03/12 08:07:15;;;;;;;;;;;;;;;;;;5011923;28;19929;-58
2022/03/12 08:09:42;;;;;;;;;;;;;;;;;;5013388;28;19921;-64
2022/03/12 08:12:08;;;;;;;;;;;;;;;;;;4996715;28;19953;-62
2022/03/12 08:14:35;;;;;;;;;;;;;;;;;;5014597;28;19920;-63
2022/03/12 08:17:01;;;;;;;;;;;;;;;;;;5014566;28;19999;-51
2022/03/12 08:19:28;;;;;;;;;;;;;;;;;;5014750;28;19916;-54
2022/03/12 08:21:57;;;;;;;;;;;;;;;;;;5006938;28;19918;-54
2022/03/12 08:24:23;;;;;;;;;;;;;;;;;;5013594;28;20008;-50
2022/03/12 08:26:50;;;;;;;;;;;;;;;;;;5012520;28;19916;-52
2022/03/12 08:29:18;;;;;;;;;;;;;;;;;;5012965;28;19921;-50
2022/03/12 08:31:44;;;;;;;;;;;;;;;;;;5010919;28;20023;-49
2022/03/12 08:34:11;;;;;;;;;;;;;;;;;;5013238;28;19909;-50
2022/03/12 08:36:37;;;;;;;;;;;;;;;;;;5012600;28;19921;-57
2022/03/12 08:39:04;;;;;;;;;;;;;;;;;;5012326;28;20348;-57
2022/03/12 08:41:30;;;;;;;;;;;;;;;;;;5009482;28;19909;-54
2022/03/12 08:43:57;;;;;;;;;;;;;;;;;;4995423;28;19910;-49
2022/03/12 08:46:23;;;;;;;;;;;;;;;;;;5010029;28;19920;-56
2022/03/12 08:48:50;;;;;;;;;;;;;;;;;;5012864;28;19909;-52
2022/03/12 08:51:16;;;;;;;;;;;;;;;;;;5006417;28;20417;-57
2022/03/12 08:53:43;;;;;;;;;;;;;;;;;;5009205;28;19933;-51
2022/03/12 08:56:09;;;;;;;;;;;;;;;;;;5012109;28;19953;-56
2022/03/12 08:58:37;;;;;;;;;;;;;;;;;;5010168;28;19924;-50
2022/03/12 09:01:06;;;;;;;;;;;;;;;;;;5004137;28;19925;-53
2022/03/12 09:03:33;;;;;;;;;;;;;;;;;;5011486;28;19913;-55
2022/03/12 09:05:59;;;;;;;;;;;;;;;;;;5009921;28;19909;-56
2022/03/12 09:08:26;;;;;;;;;;;;;;;;;;5009728;28;19974;-52
2022/03/12 09:10:52;;;;;;;;;;;;;;;;;;5006168;28;19929;-54
2022/03/12 09:13:21;;;;;;;;;;;;;;;;;;5009976;28;20336;-58
2022/03/12 09:15:47;;;;;;;;;;;;;;;;;;4992052;28;19910;-52
2022/03/12 09:18:15;;;;;;;;;;;;;;;;;;4994277;28;19991;-59
2022/03/12 09:20:47;;;;;;;;;;;;;;;;;;5004143;28;19996;-51
2022/03/12 09:23:13;;;;;;;;;;;;;;;;;;5008101;28;19909;-57
2022/03/12 09:25:40;;;;;;;;;;;;;;;;;;5011516;28;20387;-59
2022/03/12 09:28:07;;;;;;;;;;;;;;;;;;5011191;28;20276;-47
2022/03/12 09:30:33;;;;;;;;;;;;;;;;;;5006802;28;19918;-52
2022/03/12 09:33:00;;;;;;;;;;;;;;;;;;5010958;28;19927;-50
2022/03/12 09:35:28;;;;;;;;;;;;;;;;;;4994477;28;20291;-50
2022/03/12 09:37:55;;;;;;;;;;;;;;;;;;4993731;28;19926;-52
2022/03/12 09:40:21;;;;;;;;;;;;;;;;;;5007399;28;19975;-54
2022/03/12 09:42:48;;;;;;;;;;;;;;;;;;5010709;28;19910;-51
2022/03/12 09:45:14;;;;;;;;;;;;;;;;;;5011611;28;19913;-55
2022/03/12 09:47:41;;;;;;;;;;;;;;;;;;5011227;28;19917;-51
2022/03/12 09:50:09;;;;;;;;;;;;;;;;;;5009677;28;20372;-50
2022/03/12 09:52:35;;;;;;;;;;;;;;;;;;4990530;28;19917;-55
2022/03/12 09:55:02;;;;;;;;;;;;;;;;;;5011303;28;19913;-57
2022/03/12 09:57:28;;;;;;;;;;;;;;;;;;5010864;28;20355;-60
2022/03/12 09:59:56;;;;;;;;;;;;;;;;;;5011441;28;20275;-53
2022/03/12 10:02:22;;;;;;;;;;;;;;;;;;5006174;28;19920;-53
2022/03/12 10:04:49;;;;;;;;;;;;;;;;;;5011666;28;19910;-56
2022/03/12 10:07:15;;;;;;;;;;;;;;;;;;4993915;28;19910;-53
2022/03/12 10:09:42;;;;;;;;;;;;;;;;;;5011727;28;19964;-53
2022/03/12 10:12:09;;;;;;;;;;;;;;;;;;5005581;28;19932;-58
2022/03/12 10:14:35;;;;;;;;;;;;;;;;;;4993756;28;19950;-58
2022/03/12 10:17:02;;;;;;;;;;;;;;;;;;5011039;28;20321;-55
2022/03/12 10:19:30;;;;;;;;;;;;;;;;;;5010733;28;19964;-51
2022/03/12 10:21:57;;;;;;;;;;;;;;;;;;5005128;28;19914;-53
2022/03/12 10:24:24;;;;;;;;;;;;;;;;;;5011172;28;19951;-55
2022/03/12 10:26:51;;;;;;;;;;;;;;;;;;5011082;28;19933;-53
2022/03/12 10:29:19;;;;;;;;;;;;;;;;;;5010881;28;19913;-53
2022/03/12 10:31:46;;;;;;;;;;;;;;;;;;5009644;28;20338;-65
2022/03/12 10:34:12;;;;;;;;;;;;;;;;;;5014280;28;19937;-48
2022/03/12 10:36:42;;;;;;;;;;;;;;;;;;5015161;28;19933;-56
2022/03/12 10:39:09;;;;;;;;;;;;;;;;;;5014177;28;19967;-52
2022/03/12 10:41:37;;;;;;;;;;;;;;;;;;5009599;28;20291;-58
2022/03/12 10:44:04;;;;;;;;;;;;;;;;;;5014144;28;19960;-51
2022/03/12 10:46:30;;;;;;;;;;;;;;;;;;4997359;28;19916;-55
2022/03/12 10:48:57;;;;;;;;;;;;;;;;;;5014265;28;19910;-55
2022/03/12 10:51:26;;;;;;;;;;;;;;;;;;5009405;28;19979;-56
2022/03/12 10:53:52;;;;;;;;;;;;;;;;;;5014118;28;19917;-55
2022/03/12 10:56:19;;;;;;;;;;;;;;;;;;5015111;28;19910;-56
2022/03/12 10:58:46;;;;;;;;;;;;;;;;;;5014713;28;20003;-58
2022/03/12 11:01:12;;;;;;;;;;;;;;;;;;5008964;28;19940;-59
2022/03/12 11:03:39;;;;;;;;;;;;;;;;;;5014192;28;20060;-58
2022/03/12 11:06:05;;;;;;;;;;;;;;;;;;5015121;28;19940;-60
2022/03/12 11:08:32;;;;;;;;;;;;;;;;;;5014915;28;19955;-51
2022/03/12 11:10:59;;;;;;;;;;;;;;;;;;5008608;28;20044;-56
2022/03/12 11:13:31;;;;;;;;;;;;;;;;;;5014133;28;20315;-58
2022/03/12 11:15:57;;;;;;;;;;;;;;;;;;4997220;28;19910;-59
2022/03/12 11:18:24;;;;;;;;;;;;;;;;;;5014586;28;19949;-56
2022/03/12 11:20:52;;;;;;;;;;;;;;;;;;5009510;28;19960;-63
2022/03/12 11:23:27;;;;;;;;;;;;;;;;;;5013845;28;19914;-54
2022/03/12 11:25:57;;;;;;;;;;;;;;;;;;5011297;28;20002;-51
2022/03/12 11:28:24;;;;;;;;;;;;;;;;;;5010951;28;19914;-56
2022/03/12 11:30:50;;;;;;;;;;;;;;;;;;5009184;28;19910;-44
2022/03/12 11:33:18;;;;;;;;;;;;;;;;;;5013470;28;20436;-50
2022/03/12 11:35:45;;;;;;;;;;;;;;;;;;5014149;28;19920;-50
2022/03/12 11:38:12;;;;;;;;;;;;;;;;;;5013973;28;19925;-47
2022/03/12 11:40:39;;;;;;;;;;;;;;;;;;5008114;28;19917;-59
2022/03/12 11:43:05;;;;;;;;;;;;;;;;;;5012094;28;19909;-53
2022/03/12 11:45:32;;;;;;;;;;;;;;;;;;5013785;28;19910;-60
2022/03/12 11:47:58;;;;;;;;;;;;;;;;;;5013865;28;19977;-53
2022/03/12 11:50:24;;;;;;;;;;;;;;;;;;5010261;28;19917;-50
2022/03/12 11:52:52;;;;;;;;;;;;;;;;;;5012148;28;19963;-55
2022/03/12 11:55:20;;;;;;;;;;;;;;;;;;5013710;28;19914;-59
2022/03/12 11:57:47;;;;;;;;;;;;;;;;;;5014687;28;19996;-65
2022/03/12 12:00:15;;;;;;;;;;;;;;;;;;5014989;28;19910;-62
2022/03/12 12:02:41;;;;;;;;;;;;;;;;;;5014735;28;19909;-50
2022/03/12 12:05:10;;;;;;;;;;;;;;;;;;4993134;28;19909;-53
2022/03/12 12:07:37;;;;;;;;;;;;;;;;;;5006412;28;19993;-65
2022/03/12 12:10:03;;;;;;;;;;;;;;;;;;5013255;28;19928;-51
2022/03/12 12:12:32;;;;;;;;;;;;;;;;;;5011311;28;19957;-51
2022/03/12 12:14:59;;;;;;;;;;;;;;;;;;5013002;28;19909;-47
2022/03/12 12:17:25;;;;;;;;;;;;;;;;;;5012307;28;19984;-48
2022/03/12 12:19:52;;;;;;;;;;;;;;;;;;5012921;28;20007;-48
2022/03/12 12:22:18;;;;;;;;;;;;;;;;;;5012935;28;20360;-55
2022/03/12 12:24:45;;;;;;;;;;;;;;;;;;5014064;28;20268;-57
2022/03/12 12:27:11;;;;;;;;;;;;;;;;;;5014209;28;20008;-62
2022/03/12 12:29:38;;;;;;;;;;;;;;;;;;5014244;28;19910;-64
2022/03/12 12:32:04;;;;;;;;;;;;;;;;;;5014520;28;19925;-57
2022/03/12 12:34:31;;;;;;;;;;;;;;;;;;5007492;28;19914;-45
2022/03/12 12:36:57;;;;;;;;;;;;;;;;;;5012492;28;20404;-45
2022/03/12 12:39:24;;;;;;;;;;;;;;;;;;5012754;28;20344;-48
2022/03/12 12:41:52;;;;;;;;;;;;;;;;;;5012400;28;20322;-45
2022/03/12 12:44:18;;;;;;;;;;;;;;;;;;5009904;28;19931;-50
2022/03/12 12:46:45;;;;;;;;;;;;;;;;;;5012460;28;19940;-51
2022/03/12 12:49:12;;;;;;;;;;;;;;;;;;5012815;28;20444;-41
2022/03/12 12:51:39;;;;;;;;;;;;;;;;;;5012835;28;19910;-49
2022/03/12 12:54:07;;;;;;;;;;;;;;;;;;5008318;28;19932;-46
2022/03/12 12:56:38;;;;;;;;;;;;;;;;;;5012248;28;19917;-50
2022/03/12 12:59:05;;;;;;;;;;;;;;;;;;5012665;28;19983;-42
2022/03/12 13:01:37;;;;;;;;;;;;;;;;;;5012522;28;19929;-45
2022/03/12 13:04:03;;;;;;;;;;;;;;;;;;5008249;28;19918;-45
2022/03/12 13:06:30;;;;;;;;;;;;;;;;;;5011229;28;20008;-45
2022/03/12 13:08:58;;;;;;;;;;;;;;;;;;5011956;28;19909;-46
2022/03/12 13:11:24;;;;;;;;;;;;;;;;;;5012194;28;20284;-40
2022/03/12 13:13:50;;;;;;;;;;;;;;;;;;5008073;28;20295;-48
2022/03/12 13:16:17;;;;;;;;;;;;;;;;;;5010856;28;19933;-48
2022/03/12 13:18:43;;;;;;;;;;;;;;;;;;5012537;28;19956;-47
2022/03/12 13:21:10;;;;;;;;;;;;;;;;;;5012192;28;20449;-47
2022/03/12 13:23:36;;;;;;;;;;;;;;;;;;5011850;28;19917;-50
2022/03/12 13:26:03;;;;;;;;;;;;;;;;;;5006852;28;19917;-50
2022/03/12 13:28:30;;;;;;;;;;;;;;;;;;5012041;28;19989;-51
2022/03/12 13:30:56;;;;;;;;;;;;;;;;;;5012068;28;20032;-50
2022/03/12 13:33:23;;;;;;;;;;;;;;;;;;5012052;28;19917;-46
2022/03/12 13:35:49;;;;;;;;;;;;;;;;;;5006307;28;19925;-49
2022/03/12 13:38:16;;;;;;;;;;;;;;;;;;5011730;28;19921;-43
2022/03/12 13:40:43;;;;;;;;;;;;;;;;;;5012038;28;19932;-47
2022/03/12 13:43:09;;;;;;;;;;;;;;;;;;5011782;28;19913;-42
2022/03/12 13:45:36;;;;;;;;;;;;;;;;;;5007154;28;19910;-41
2022/03/12 13:48:02;;;;;;;;;;;;;;;;;;5011344;28;19956;-42
2022/03/12 13:50:29;;;;;;;;;;;;;;;;;;5011865;28;19909;-49
2022/03/12 13:52:56;;;;;;;;;;;;;;;;;;5011968;28;20319;-47
2022/03/12 13:55:27;;;;;;;;;;;;;;;;;;5006304;28;20326;-55
2022/03/12 13:57:54;;;;;;;;;;;;;;;;;;4994197;28;19979;-50
2022/03/12 14:00:20;;;;;;;;;;;;;;;;;;5011958;28;19910;-46
2022/03/12 14:02:47;;;;;;;;;;;;;;;;;;5011829;28;19909;-53
2022/03/12 14:05:13;;;;;;;;;;;;;;;;;;5007228;28;20364;-46
2022/03/12 14:07:40;;;;;;;;;;;;;;;;;;5015606;28;20011;-45
2022/03/12 14:10:06;;;;;;;;;;;;;;;;;;5015684;28;19916;-57
2022/03/12 14:12:33;;;;;;;;;;;;;;;;;;5016026;28;19918;-48
2022/03/12 14:15:03;;;;;;;;;;;;;;;;;;5010856;28;19917;-45
2022/03/12 14:17:30;;;;;;;;;;;;;;;;;;5015491;28;20352;-51
2022/03/12 14:19:57;;;;;;;;;;;;;;;;;;5015324;28;19987;-47
2022/03/12 14:22:23;;;;;;;;;;;;;;;;;;5012023;28;20012;-42
2022/03/12 14:24:53;;;;;;;;;;;;;;;;;;5009461;28;19910;-43
2022/03/12 14:27:22;;;;;;;;;;;;;;;;;;5015468;28;19989;-59
2022/03/12 14:29:48;;;;;;;;;;;;;;;;;;5014764;28;21069;-63
2022/03/12 14:32:16;;;;;;;;;;;;;;;;;;5015513;28;20350;-46
2022/03/12 14:34:42;;;;;;;;;;;;;;;;;;5011113;28;20000;-46
2022/03/12 14:37:08;;;;;;;;;;;;;;;;;;5015054;28;19922;-42
2022/03/12 14:39:35;;;;;;;;;;;;;;;;;;5014964;28;20280;-42
2022/03/12 14:42:01;;;;;;;;;;;;;;;;;;5015200;28;19921;-43
2022/03/12 14:44:28;;;;;;;;;;;;;;;;;;5010799;28;19913;-51
2022/03/12 14:46:54;;;;;;;;;;;;;;;;;;5014585;28;20004;-43
2022/03/12 14:49:21;;;;;;;;;;;;;;;;;;4997060;28;20405;-43
2022/03/12 14:51:49;;;;;;;;;;;;;;;;;;5015028;28;19916;-41
2022/03/12 14:54:15;;;;;;;;;;;;;;;;;;5009754;28;19926;-63
2022/03/12 14:56:41;;;;;;;;;;;;;;;;;;5013990;28;19917;-45
2022/03/12 14:59:09;;;;;;;;;;;;;;;;;;5014384;28;19948;-61
2022/03/12 15:01:35;;;;;;;;;;;;;;;;;;5015251;28;19909;-64
2022/03/12 15:04:02;;;;;;;;;;;;;;;;;;5005971;28;19918;-57
2022/03/12 15:06:28;;;;;;;;;;;;;;;;;;5013974;28;19909;-60
2022/03/12 15:08:55;;;;;;;;;;;;;;;;;;5014933;28;19936;-61
2022/03/12 15:11:21;;;;;;;;;;;;;;;;;;5013864;28;19909;-63
2022/03/12 15:13:48;;;;;;;;;;;;;;;;;;5012133;28;19940;-48
2022/03/12 15:16:15;;;;;;;;;;;;;;;;;;5011599;28;19956;-46
2022/03/12 15:18:42;;;;;;;;;;;;;;;;;;5014599;28;19913;-42
2022/03/12 15:21:08;;;;;;;;;;;;;;;;;;5014191;28;20321;-45
2022/03/12 15:23:36;;;;;;;;;;;;;;;;;;5014563;28;19909;-61
2022/03/12 15:26:08;;;;;;;;;;;;;;;;;;5010035;28;19918;-43
2022/03/12 15:28:35;;;;;;;;;;;;;;;;;;5014438;28;20328;-44
2022/03/12 15:31:08;;;;;;;;;;;;;;;;;;5013907;28;19917;-41
2022/03/12 15:33:37;;;;;;;;;;;;;;;;;;5014275;28;19925;-42
2022/03/12 15:36:04;;;;;;;;;;;;;;;;;;5010307;28;19963;-62
2022/03/12 15:38:30;;;;;;;;;;;;;;;;;;5015583;28;19914;-62
2022/03/12 15:40:57;;;;;;;;;;;;;;;;;;5015493;28;19909;-48
2022/03/12 15:43:23;;;;;;;;;;;;;;;;;;5015603;28;19910;-64
2022/03/12 15:45:50;;;;;;;;;;;;;;;;;;5015347;28;19910;-60
2022/03/12 15:48:17;;;;;;;;;;;;;;;;;;5015447;28;19996;-63
2022/03/12 15:50:43;;;;;;;;;;;;;;;;;;5015260;28;19957;-61
2022/03/12 15:53:10;;;;;;;;;;;;;;;;;;5014894;28;20771;-64
2022/03/12 15:55:37;;;;;;;;;;;;;;;;;;5015513;28;19996;-62
2022/03/12 15:58:03;;;;;;;;;;;;;;;;;;5015204;28;19964;-45
2022/03/12 16:00:30;;;;;;;;;;;;;;;;;;5015187;28;19910;-53
2022/03/12 16:02:56;;;;;;;;;;;;;;;;;;5014442;28;20364;-49
2022/03/12 16:05:25;;;;;;;;;;;;;;;;;;5014799;28;19946;-56
2022/03/12 16:07:52;;;;;;;;;;;;;;;;;;5014957;28;19917;-53
2022/03/12 16:10:18;;;;;;;;;;;;;;;;;;5014852;28;19963;-60
2022/03/12 16:12:45;;;;;;;;;;;;;;;;;;5014996;28;19932;-53
2022/03/12 16:15:11;;;;;;;;;;;;;;;;;;5014884;28;20396;-55
2022/03/12 16:17:38;;;;;;;;;;;;;;;;;;5014889;28;19955;-52
2022/03/12 16:20:06;;;;;;;;;;;;;;;;;;5014801;28;19920;-58
2022/03/12 16:22:32;;;;;;;;;;;;;;;;;;5014731;28;19910;-46
2022/03/12 16:24:59;;;;;;;;;;;;;;;;;;5014354;28;19910;-55
2022/03/12 16:27:26;;;;;;;;;;;;;;;;;;5014786;28;19992;-62
2022/03/12 16:29:53;;;;;;;;;;;;;;;;;;5013579;28;19909;-58
2022/03/12 16:32:19;;;;;;;;;;;;;;;;;;5014692;28;20012;-60
2022/03/12 16:34:45;;;;;;;;;;;;;;;;;;5014416;28;19917;-55
2022/03/12 16:37:15;;;;;;;;;;;;;;;;;;5013937;28;20384;-57
2022/03/12 16:39:41;;;;;;;;;;;;;;;;;;5014413;28;19909;-59
2022/03/12 16:42:08;;;;;;;;;;;;;;;;;;5014181;28;20276;-56
2022/03/12 16:44:35;;;;;;;;;;;;;;;;;;5014333;28;19920;-56